.
WxDataArchive / Data Records for 2006-09-14
2006-09-13 September 2006 2006-09-15

Data Records for Thursday, 14 September 2006

Time	Temp	Chill	HIndex	Humid	Dewpt	 Wind 	HiWind	WindDir	Rain 	Barom 
-----	----	-----	------	-----	-----	------	------	-------	-----	----- 
00:00	63.9	63.9	63.9	92	61.5	0	1	248	0.00	29.800 
00:05	63.9	63.9	63.9	92	61.5	0	1	248	0.00	29.800 
00:10	63.9	63.9	63.9	92	61.5	0	1	248	0.00	29.800 
00:15	63.7	63.7	63.7	92	61.3	0	1	248	0.00	29.799 
00:20	63.5	63.5	63.5	92	61.1	0	1	248	0.00	29.799 
00:25	63.4	63.4	63.4	92	61.0	0	1	248	0.00	29.799 
00:30	63.2	63.2	63.2	93	61.1	0	1	248	0.00	29.801 
00:35	63.2	63.2	63.2	93	61.1	0	1	248	0.00	29.801 
00:40	63.2	63.2	63.2	93	61.1	0	1	248	0.00	29.801 
00:45	63.1	63.1	63.1	93	61.0	0	1	248	0.00	29.803 
00:50	63.1	63.1	63.1	93	61.0	0	1	248	0.00	29.803 
00:55	62.9	62.9	62.9	93	60.8	0	1	248	0.00	29.803 
01:00	62.7	62.7	62.7	94	60.9	0	0	---	0.00	29.812 
01:05	62.6	62.6	62.6	94	60.8	0	0	---	0.00	29.812 
01:10	62.6	62.6	62.6	94	60.8	0	0	---	0.00	29.812 
01:15	62.6	62.6	62.6	94	60.8	0	1	248	0.00	29.811 
01:20	62.6	62.6	62.6	94	60.8	0	0	---	0.00	29.811 
01:25	62.6	62.6	62.6	94	60.8	0	1	248	0.00	29.811 
01:30	62.6	62.6	62.6	95	61.1	0	0	---	0.00	29.815 
01:35	62.6	62.6	62.6	95	61.1	0	1	248	0.00	29.815 
01:40	62.4	62.4	62.4	95	60.9	0	0	---	0.00	29.815 
01:45	62.4	62.4	62.4	95	60.9	0	1	248	0.00	29.816 
01:50	62.3	62.3	62.3	95	60.8	0	1	248	0.00	29.816 
01:55	62.1	62.1	62.1	95	60.6	0	0	---	0.00	29.816 
02:00	62.1	62.1	62.1	95	60.6	0	0	---	0.00	29.817 
02:05	62.1	62.1	62.1	95	60.6	0	1	248	0.00	29.817 
02:10	62.0	62.0	62.0	95	60.5	0	1	248	0.00	29.817 
02:15	62.0	62.0	62.0	95	60.5	0	1	248	0.00	29.817 
02:20	61.8	61.8	61.8	95	60.3	0	0	---	0.00	29.817 
02:25	61.8	61.8	61.8	96	60.6	0	1	248	0.00	29.817 
02:30	61.8	61.8	61.8	96	60.6	0	0	---	0.00	29.818 
02:35	61.6	61.6	61.6	96	60.4	0	0	---	0.00	29.818 
02:40	61.5	61.5	61.5	96	60.3	0	0	---	0.00	29.818 
02:45	61.3	61.3	61.3	96	60.1	0	0	---	0.00	29.822 
02:50	61.3	61.3	61.3	96	60.1	0	0	---	0.00	29.822 
02:55	61.2	61.2	61.2	96	60.0	0	0	---	0.00	29.822 
03:00	61.2	61.2	61.2	96	60.0	0	0	---	0.00	29.825 
03:05	61.2	61.2	61.2	96	60.0	0	0	---	0.00	29.825 
03:10	61.2	61.2	61.2	96	60.0	0	0	---	0.00	29.825 
03:15	61.0	61.0	61.0	96	59.8	0	0	---	0.00	29.826 
03:20	60.9	60.9	60.9	96	59.7	0	0	---	0.00	29.826 
03:25	60.9	60.9	60.9	96	59.7	0	0	---	0.00	29.826 
03:30	60.9	60.9	60.9	96	59.7	0	0	---	0.00	29.828 
03:35	61.0	61.0	61.0	96	59.8	0	0	---	0.00	29.828 
03:40	61.2	61.2	61.2	97	60.3	0	0	---	0.00	29.828 
03:45	61.3	61.3	61.3	97	60.4	0	0	---	0.00	29.832 
03:50	61.5	61.5	61.5	97	60.6	0	0	---	0.00	29.832 
03:55	61.6	61.6	61.6	97	60.7	0	0	---	0.00	29.832 
04:00	61.6	61.6	61.6	97	60.7	0	0	---	0.00	29.831 
04:05	61.8	61.8	61.8	97	60.9	0	0	---	0.00	29.831 
04:10	61.8	61.8	61.8	97	60.9	0	0	---	0.00	29.831 
04:15	61.8	61.8	61.8	97	60.9	0	0	---	0.00	29.831 
04:20	62.0	62.0	62.0	97	61.1	0	0	---	0.00	29.831 
04:25	62.0	62.0	62.0	97	61.1	0	0	---	0.00	29.831 
04:30	62.0	62.0	62.0	97	61.1	0	0	---	0.00	29.831 
04:35	62.0	62.0	62.0	97	61.1	0	0	---	0.00	29.831 
04:40	62.1	62.1	62.1	97	61.2	0	0	---	0.00	29.831 
04:45	62.1	62.1	62.1	97	61.2	0	0	---	0.00	29.833 
04:50	62.1	62.1	62.1	97	61.2	0	1	248	0.00	29.833 
04:55	62.1	62.1	62.1	97	61.2	0	0	---	0.00	29.833 
05:00	62.1	62.1	62.1	97	61.2	0	0	---	0.00	29.843 
05:05	62.1	62.1	62.1	97	61.2	0	1	248	0.00	29.843 
05:10	62.1	62.1	62.1	97	61.2	0	1	248	0.00	29.843 
05:15	62.3	62.3	62.3	97	61.4	0	0	---	0.00	29.845 
05:20	62.3	62.3	62.3	97	61.4	0	0	---	0.00	29.845 
05:25	62.1	62.1	62.1	97	61.2	0	0	---	0.00	29.845 
05:30	62.1	62.1	62.1	96	60.9	0	0	---	0.00	29.845 
05:35	62.3	62.3	62.3	96	61.1	0	0	---	0.00	29.845 
05:40	62.3	62.3	62.3	96	61.1	0	0	---	0.00	29.845 
05:45	62.3	62.3	62.3	96	61.1	0	0	---	0.00	29.848 
05:50	62.3	62.3	62.3	96	61.1	0	0	---	0.00	29.848 
05:55	62.3	62.3	62.3	96	61.1	0	0	---	0.00	29.848 
06:00	62.4	62.4	62.4	96	61.2	0	0	---	0.00	29.854 
06:05	62.4	62.4	62.4	96	61.2	0	0	---	0.00	29.854 
06:10	62.4	62.4	62.4	96	61.2	0	0	---	0.00	29.854 
06:15	62.4	62.4	62.4	95	60.9	0	0	---	0.00	29.862 
06:20	62.4	62.4	62.4	95	60.9	0	0	---	0.00	29.862 
06:25	62.4	62.4	62.4	95	60.9	0	0	---	0.00	29.862 
06:30	62.4	62.4	62.4	95	60.9	0	0	---	0.00	29.865 
06:35	62.4	62.4	62.4	95	60.9	0	0	---	0.00	29.865 
06:40	62.6	62.6	62.6	95	61.1	0	0	---	0.00	29.865 
06:45	62.6	62.6	62.6	95	61.1	0	0	---	0.00	29.872 
06:50	62.6	62.6	62.6	95	61.1	0	0	---	0.00	29.872 
06:55	62.6	62.6	62.6	95	61.1	0	0	---	0.00	29.872 
07:00	62.6	62.6	62.6	95	61.1	0	0	---	0.00	29.877 
07:05	62.6	62.6	62.6	95	61.1	0	0	---	0.00	29.877 
07:10	62.6	62.6	62.6	95	61.1	0	0	---	0.00	29.877 
07:15	62.6	62.6	62.6	95	61.1	0	0	---	0.00	29.887 
07:20	62.6	62.6	62.6	95	61.1	0	0	---	0.00	29.887 
07:25	62.6	62.6	62.6	95	61.1	0	0	---	0.00	29.887 
07:30	62.6	62.6	62.6	95	61.1	0	0	---	0.00	29.893 
07:35	62.6	62.6	62.6	95	61.1	0	0	---	0.00	29.893 
07:40	62.7	62.7	62.7	95	61.2	0	0	---	0.00	29.893 
07:45	62.7	62.7	62.7	95	61.2	0	0	---	0.00	29.900 
07:50	62.7	62.7	62.7	95	61.2	0	0	---	0.00	29.900 
07:55	62.7	62.7	62.7	95	61.2	0	0	---	0.00	29.900 
08:00	62.9	62.9	62.9	95	61.4	0	0	---	0.00	29.908 
08:05	62.9	62.9	62.9	95	61.4	0	1	248	0.00	29.908 
08:10	62.9	62.9	62.9	95	61.4	0	0	---	0.00	29.908 
08:15	63.1	63.1	63.1	95	61.6	0	0	---	0.00	29.909 
08:20	63.2	63.2	63.2	95	61.7	0	0	---	0.00	29.909 
08:25	63.2	63.2	63.2	95	61.7	0	0	---	0.00	29.909 
08:30	63.4	63.4	63.4	95	61.9	0	1	248	0.00	29.911 
08:35	63.4	63.4	63.4	94	61.6	0	1	248	0.00	29.911 
08:40	63.4	63.4	63.4	94	61.6	0	1	248	0.00	29.911 
08:45	63.4	63.4	63.4	94	61.6	0	1	248	0.00	29.916 
08:50	63.5	63.5	63.5	94	61.7	0	1	248	0.00	29.916 
08:55	63.7	63.7	63.7	93	61.6	0	2	248	0.00	29.916 
09:00	63.7	63.7	63.7	92	61.3	1	3	158	0.00	29.922 
09:05	63.7	63.7	63.7	91	61.0	1	3	112	0.00	29.922 
09:10	63.9	63.9	63.9	91	61.2	0	2	112	0.00	29.922 
09:15	63.9	63.9	63.9	91	61.2	1	3	90	0.00	29.925 
09:20	64.0	64.0	64.0	91	61.3	0	1	90	0.00	29.925 
09:25	64.0	64.0	64.0	90	61.0	1	2	90	0.00	29.925 
09:30	64.2	64.2	64.2	89	60.9	1	2	90	0.00	29.928 
09:35	64.3	64.3	64.3	89	61.0	0	2	90	0.00	29.928 
09:40	64.3	64.3	64.3	89	61.0	0	2	90	0.00	29.928 
09:45	64.5	64.5	64.5	89	61.2	0	1	90	0.00	29.936 
09:50	64.5	64.5	64.5	88	60.9	0	2	90	0.00	29.936 
09:55	64.5	64.5	64.5	88	60.9	1	2	90	0.00	29.936 
10:00	64.7	64.7	64.7	88	61.1	1	3	90	0.00	29.937 
10:05	64.7	64.7	64.7	87	60.7	1	2	90	0.00	29.937 
10:10	65.0	65.0	65.0	86	60.7	2	4	90	0.00	29.937 
10:15	65.2	65.2	65.2	86	60.9	1	3	90	0.00	29.940 
10:20	65.5	65.5	65.5	87	61.5	0	2	90	0.00	29.940 
10:25	65.6	65.6	65.6	86	61.3	0	1	90	0.00	29.940 
10:30	65.8	65.8	65.8	86	61.5	0	1	90	0.00	29.945 
10:35	65.8	65.8	65.8	86	61.5	0	1	90	0.00	29.945 
10:40	65.8	65.8	65.8	86	61.5	0	1	90	0.00	29.945 
10:45	66.0	66.0	66.0	86	61.7	0	1	90	0.00	29.952 
10:50	65.8	65.8	65.8	86	61.5	0	3	68	0.00	29.952 
10:55	65.8	65.8	65.8	86	61.5	0	0	---	0.00	29.952 
11:00	65.8	65.8	65.8	87	61.8	0	1	68	0.00	29.955 
11:05	65.6	65.6	65.6	85	61.0	0	2	68	0.00	29.955 
11:10	65.6	65.6	65.6	86	61.3	0	1	68	0.00	29.955 
11:15	65.8	65.8	65.8	86	61.5	0	2	68	0.00	29.960 
11:20	66.1	66.1	66.1	86	61.8	0	1	68	0.00	29.960 
11:25	66.3	66.3	66.3	84	61.3	0	1	68	0.00	29.960 
11:30	66.4	66.4	66.4	85	61.7	0	1	68	0.00	29.964 
11:35	66.6	66.6	66.6	85	61.9	0	1	68	0.00	29.964 
11:40	66.8	66.8	66.8	84	61.8	0	2	68	0.00	29.964 
11:45	67.3	67.3	67.3	83	62.0	0	2	68	0.00	29.968 
11:50	67.4	67.4	67.4	81	61.4	0	1	68	0.00	29.968 
11:55	67.1	67.1	67.1	82	61.4	0	3	270	0.00	29.968 
12:00	66.9	66.9	66.9	81	60.9	0	1	315	0.00	29.971 
12:05	66.8	66.8	66.8	82	61.1	0	2	315	0.00	29.971 
12:10	66.6	66.6	66.6	81	60.6	1	3	315	0.00	29.971 
12:15	66.4	66.4	66.4	81	60.4	1	4	45	0.00	29.975 
12:20	66.4	66.4	66.4	82	60.7	0	4	135	0.00	29.975 
12:25	66.4	66.4	66.4	82	60.7	0	4	112	0.00	29.975 
12:30	66.4	66.4	66.4	81	60.4	0	3	112	0.00	29.974 
12:35	66.8	66.8	66.8	81	60.8	0	3	112	0.00	29.974 
12:40	66.8	66.8	66.8	80	60.4	0	2	112	0.00	29.974 
12:45	66.9	66.9	66.9	79	60.2	0	2	112	0.00	29.976 
12:50	67.3	67.3	67.3	81	61.3	0	2	112	0.00	29.976 
12:55	67.3	67.3	67.3	79	60.6	1	4	90	0.00	29.976 
13:00	67.3	67.3	67.3	79	60.6	2	4	112	0.00	29.979 
13:05	67.3	67.3	67.3	79	60.6	1	3	112	0.00	29.979 
13:10	67.3	67.3	67.3	79	60.6	0	2	112	0.00	29.979 
13:15	67.3	67.3	67.3	78	60.2	0	3	112	0.00	29.984 
13:20	67.1	67.1	67.1	80	60.7	0	2	112	0.00	29.984 
13:25	66.9	66.9	66.9	80	60.5	0	2	112	0.00	29.984 
13:30	66.8	66.8	66.8	80	60.4	0	3	270	0.00	29.985 
13:35	66.6	66.6	66.6	80	60.2	0	1	270	0.00	29.985 
13:40	66.6	66.6	66.6	81	60.6	0	1	270	0.00	29.985 
13:45	66.6	66.6	66.6	79	59.9	0	2	270	0.00	29.982 
13:50	66.8	66.8	66.8	79	60.1	0	4	90	0.00	29.982 
13:55	66.9	66.9	66.9	81	60.9	0	4	90	0.00	29.982 
14:00	67.1	67.1	67.1	80	60.7	0	2	135	0.00	29.985 
14:05	67.4	67.4	67.4	80	61.0	0	1	135	0.00	29.985 
14:10	67.6	67.6	67.6	80	61.2	1	3	112	0.00	29.985 
14:15	67.8	67.8	67.8	80	61.4	1	4	90	0.00	29.985 
14:20	67.8	67.8	67.8	79	61.0	0	2	90	0.00	29.985 
14:25	67.6	67.6	67.6	78	60.5	0	2	90	0.00	29.985 
14:30	67.4	67.4	67.4	79	60.7	0	2	112	0.00	29.985 
14:35	67.6	67.6	67.6	79	60.8	0	2	112	0.00	29.985 
14:40	67.6	67.6	67.6	77	60.1	0	2	112	0.00	29.985 
14:45	67.9	67.9	67.9	78	60.8	0	4	112	0.00	29.984 
14:50	68.1	68.1	68.1	77	60.6	0	2	292	0.00	29.984 
14:55	68.4	68.4	68.4	77	60.9	0	2	292	0.00	29.984 
15:00	68.9	68.9	68.9	77	61.4	0	2	315	0.00	29.983 
15:05	69.4	69.4	69.4	77	61.9	0	3	68	0.00	29.983 
15:10	69.6	69.6	69.6	75	61.3	0	1	68	0.00	29.983 
15:15	69.9	69.9	69.9	73	60.8	1	3	68	0.00	29.979 
15:20	69.9	69.9	69.9	75	61.6	1	4	90	0.00	29.979 
15:25	69.9	69.9	69.9	72	60.4	1	4	90	0.00	29.979 
15:30	69.9	69.9	69.9	74	61.2	2	4	112	0.00	29.970 
15:35	70.3	70.3	70.3	74	61.6	2	4	112	0.00	29.970 
15:40	70.6	70.6	70.6	72	61.1	1	4	90	0.00	29.970 
15:45	70.9	70.9	70.9	71	61.0	2	6	112	0.00	29.968 
15:50	70.8	70.8	70.8	74	62.1	0	3	112	0.00	29.968 
15:55	70.4	70.4	70.4	73	61.3	0	4	112	0.00	29.968 
16:00	70.4	70.4	70.4	74	61.7	1	4	90	0.00	29.968 
16:05	70.8	70.8	70.8	72	61.3	1	3	68	0.00	29.968 
16:10	71.6	71.6	71.6	74	62.9	1	4	90	0.00	29.968 
16:15	72.1	72.1	72.1	71	62.2	1	4	112	0.00	29.969 
16:20	72.7	72.7	72.7	72	63.1	1	6	112	0.00	29.969 
16:25	72.3	72.3	72.3	66	60.3	1	6	90	0.00	29.969 
16:30	72.1	72.1	72.1	68	60.9	0	2	112	0.00	29.969 
16:35	72.0	72.0	72.0	71	62.1	1	4	90	0.00	29.969 
16:40	71.8	71.8	71.8	71	61.9	1	4	90	0.00	29.969 
16:45	71.3	71.3	71.3	68	60.2	2	5	112	0.00	29.975 
16:50	71.3	71.3	71.3	71	61.4	1	5	112	0.00	29.975 
16:55	71.3	71.3	71.3	70	61.0	1	5	112	0.00	29.975 
17:00	71.1	71.1	71.1	68	60.0	0	2	112	0.00	29.981 
17:05	71.1	71.1	71.1	70	60.8	1	3	112	0.00	29.981 
17:10	70.9	70.9	70.9	65	58.5	1	5	158	0.00	29.981 
17:15	70.8	70.8	70.8	67	59.3	1	4	90	0.00	29.984 
17:20	70.6	70.6	70.6	67	59.1	2	4	112	0.00	29.984 
17:25	70.4	70.4	70.4	68	59.3	1	4	135	0.00	29.984 
17:30	70.4	70.4	70.4	66	58.5	0	1	135	0.00	29.985 
17:35	70.3	70.3	70.3	66	58.4	2	4	90	0.00	29.985 
17:40	70.3	70.3	70.3	66	58.4	2	4	68	0.00	29.985 
17:45	70.1	70.1	70.1	66	58.2	2	4	112	0.00	29.985 
17:50	70.1	70.1	70.1	65	57.8	1	3	90	0.00	29.985 
17:55	70.1	70.1	70.1	65	57.8	1	4	90	0.00	29.985 
18:00	70.1	70.1	70.1	65	57.8	1	3	90	0.00	29.985 
18:05	69.9	69.9	69.9	65	57.6	1	4	112	0.00	29.985 
18:10	69.9	69.9	69.9	65	57.6	0	1	112	0.00	29.985 
18:15	69.9	69.9	69.9	65	57.6	0	2	112	0.00	29.985 
18:20	69.8	69.8	69.8	66	57.9	1	5	90	0.00	29.985 
18:25	69.6	69.6	69.6	68	58.6	0	2	90	0.00	29.985 
18:30	69.4	69.4	69.4	69	58.8	0	1	90	0.00	29.985 
18:35	69.3	69.3	69.3	69	58.7	0	1	90	0.00	29.985 
18:40	69.1	69.1	69.1	69	58.5	0	2	90	0.00	29.985 
18:45	68.9	68.9	68.9	71	59.1	1	3	90	0.00	29.986 
18:50	68.8	68.8	68.8	71	59.0	0	1	90	0.00	29.986 
18:55	68.4	68.4	68.4	70	58.2	1	3	90	0.00	29.986 
19:00	68.3	68.3	68.3	70	58.1	0	2	90	0.00	29.991 
19:05	68.1	68.1	68.1	73	59.1	0	2	90	0.00	29.991 
19:10	67.9	67.9	67.9	73	58.9	0	2	90	0.00	29.991 
19:15	67.8	67.8	67.8	73	58.8	0	1	90	0.00	29.997 
19:20	67.6	67.6	67.6	74	59.0	0	2	90	0.00	29.997 
19:25	67.4	67.4	67.4	75	59.2	0	2	90	0.00	29.997 
19:30	67.1	67.1	67.1	75	58.9	0	2	90	0.00	29.999 
19:35	66.9	66.9	66.9	76	59.1	0	1	90	0.00	29.999 
19:40	66.6	66.6	66.6	77	59.2	0	2	90	0.00	29.999 
19:45	66.3	66.3	66.3	77	58.9	0	1	90	0.00	30.002 
19:50	66.0	66.0	66.0	78	58.9	0	1	90	0.00	30.002 
19:55	65.6	65.6	65.6	78	58.5	0	0	---	0.00	30.002 
20:00	65.3	65.3	65.3	79	58.6	0	0	---	0.00	30.003 
20:05	65.0	65.0	65.0	79	58.3	0	0	---	0.00	30.003 
20:10	64.7	64.7	64.7	80	58.4	0	0	---	0.00	30.003 
20:15	64.2	64.2	64.2	81	58.2	0	0	---	0.00	30.005 
20:20	63.9	63.9	63.9	82	58.3	0	0	---	0.00	30.005 
20:25	63.4	63.4	63.4	83	58.1	0	0	---	0.00	30.005 
20:30	62.9	62.9	62.9	84	58.0	0	0	---	0.00	30.013 
20:35	62.6	62.6	62.6	85	58.0	0	0	---	0.00	30.013 
20:40	62.3	62.3	62.3	86	58.1	0	0	---	0.00	30.013 
20:45	62.0	62.0	62.0	86	57.8	0	0	---	0.00	30.012 
20:50	61.6	61.6	61.6	87	57.7	0	0	---	0.00	30.012 
20:55	61.5	61.5	61.5	88	57.9	0	0	---	0.00	30.012 
21:00	61.2	61.2	61.2	89	57.9	0	0	---	0.00	30.020 
21:05	61.0	61.0	61.0	89	57.7	0	0	---	0.00	30.020 
21:10	60.9	60.9	60.9	90	57.9	0	0	---	0.00	30.020 
21:15	60.7	60.7	60.7	90	57.7	0	0	---	0.00	30.020 
21:20	60.5	60.5	60.5	91	57.9	0	0	---	0.00	30.020 
21:25	60.4	60.4	60.4	91	57.8	0	0	---	0.00	30.020 
21:30	60.2	60.2	60.2	91	57.6	0	0	---	0.00	30.024 
21:35	60.1	60.1	60.1	91	57.5	0	0	---	0.00	30.024 
21:40	59.8	59.8	59.8	92	57.5	0	0	---	0.00	30.024 
21:45	59.6	59.6	59.6	92	57.3	0	0	---	0.00	30.031 
21:50	59.5	59.5	59.5	92	57.2	0	0	---	0.00	30.031 
21:55	59.3	59.3	59.3	92	57.0	0	0	---	0.00	30.031 
22:00	59.2	59.2	59.2	93	57.2	0	0	---	0.00	30.037 
22:05	59.0	59.0	59.0	93	57.0	0	0	---	0.00	30.037 
22:10	58.9	58.9	58.9	93	56.9	0	0	---	0.00	30.037 
22:15	58.7	58.7	58.7	93	56.7	0	0	---	0.00	30.040 
22:20	58.6	58.6	58.6	93	56.6	0	0	---	0.00	30.040 
22:25	58.4	58.4	58.4	93	56.4	0	0	---	0.00	30.040 
22:30	58.3	58.3	58.3	93	56.3	0	0	---	0.00	30.043 
22:35	58.3	58.3	58.3	94	56.6	0	0	---	0.00	30.043 
22:40	58.1	58.1	58.1	94	56.4	0	0	---	0.00	30.043 
22:45	58.0	58.0	58.0	94	56.3	0	0	---	0.00	30.041 
22:50	57.8	57.8	57.8	94	56.1	0	0	---	0.00	30.041 
22:55	57.6	57.6	57.6	94	55.9	0	0	---	0.00	30.041 
23:00	57.5	57.5	57.5	94	55.8	0	0	---	0.00	30.040 
23:05	57.5	57.5	57.5	94	55.8	0	0	---	0.00	30.040 
23:10	57.3	57.3	57.3	94	55.6	0	0	---	0.00	30.040 
23:15	57.2	57.2	57.2	94	55.5	0	0	---	0.00	30.040 
23:20	57.0	57.0	57.0	94	55.3	0	0	---	0.00	30.040 
23:25	57.0	57.0	57.0	95	55.6	0	0	---	0.00	30.040 
23:30	56.9	56.9	56.9	95	55.5	0	0	---	0.00	30.042 
23:35	56.9	56.9	56.9	95	55.5	0	0	---	0.00	30.042 
23:40	56.7	56.7	56.7	95	55.3	0	0	---	0.00	30.042 
23:45	56.7	56.7	56.7	95	55.3	0	0	---	0.00	30.046 
23:50	56.7	56.7	56.7	95	55.3	0	0	---	0.00	30.046 
23:55	56.6	56.6	56.6	95	55.2	0	0	---	0.00	30.046 

CoCoRaHS
IN-AL-39
A2 Web Hosting
Creative Commons License
GoDaddy
Look for:

loaded 2017-10-18 22:14:49 • last modified 2010-11-18 10:43:29
Privacy PolicyDisclaimer
• wx.awcolley.com is powered by PmWiki v.2002016 •
• all content (unless otherwise noted) © 2017 A W Colley